createdAt,value
2018-07-31T00:05:05.375Z,10.79
2018-07-31T00:11:00.355Z,11.41
2018-07-31T00:16:55.381Z,10.07
2018-07-31T00:22:50.385Z,11.04
2018-07-31T00:28:45.411Z,10.93
2018-07-31T00:34:40.414Z,11.78
2018-07-31T00:40:35.404Z,18.48
2018-07-31T00:46:30.377Z,10.88
2018-07-31T00:52:25.417Z,9.57
2018-07-31T00:58:20.394Z,10.95
2018-07-31T01:04:15.442Z,9.78
2018-07-31T01:10:10.461Z,10.39
2018-07-31T01:16:05.405Z,9.98
2018-07-31T01:22:00.448Z,12.57
2018-07-31T01:27:55.437Z,10.05
2018-07-31T01:33:50.441Z,10
2018-07-31T01:39:45.515Z,11.84
2018-07-31T01:45:40.451Z,10.5
2018-07-31T01:51:35.478Z,10.43
2018-07-31T01:57:30.484Z,10.15
2018-07-31T02:03:25.426Z,11.9
2018-07-31T02:09:20.451Z,12.79
2018-07-31T02:15:15.447Z,12.1
2018-07-31T02:21:10.451Z,10.71
2018-07-31T02:27:05.583Z,10.76
2018-07-31T02:33:00.476Z,15.07
2018-07-31T02:38:55.511Z,12.34
2018-07-31T02:44:50.459Z,11.37
2018-07-31T02:50:45.515Z,11.66
2018-07-31T02:56:40.565Z,11.57
2018-07-31T03:02:35.462Z,11.46
2018-07-31T03:08:30.519Z,11.83
2018-07-31T03:14:25.496Z,11.73
2018-07-31T03:20:20.515Z,14.27
2018-07-31T03:26:15.552Z,12.78
2018-07-31T03:32:10.504Z,12.21
2018-07-31T03:38:05.493Z,12.65
2018-07-31T03:44:00.569Z,12.03
2018-07-31T03:49:55.550Z,12.4
2018-07-31T03:55:50.579Z,12.41
2018-07-31T04:01:45.517Z,12.39
2018-07-31T04:07:40.529Z,13.34
2018-07-31T04:13:35.523Z,13.69
2018-07-31T04:19:30.529Z,15.05
2018-07-31T04:25:25.603Z,13.56
2018-07-31T04:31:20.615Z,14.46
2018-07-31T04:37:15.558Z,12.38
2018-07-31T04:43:10.549Z,14.49
2018-07-31T04:49:05.540Z,11.84
2018-07-31T04:55:00.640Z,12.66
2018-07-31T05:00:55.661Z,15.31
2018-07-31T05:06:50.641Z,13.44
2018-07-31T05:12:45.588Z,14.29
2018-07-31T05:18:40.610Z,12.84
2018-07-31T05:24:35.655Z,14.56
2018-07-31T05:30:30.653Z,14.05
2018-07-31T05:36:25.607Z,13.43
2018-07-31T05:42:20.626Z,14.12
2018-07-31T05:48:15.655Z,15.08
2018-07-31T05:54:10.604Z,16.78
2018-07-31T06:00:05.628Z,19.91
2018-07-31T06:06:00.612Z,17.3
2018-07-31T06:11:55.698Z,20.83
2018-07-31T06:17:50.653Z,19.12
2018-07-31T06:23:45.637Z,20.18
2018-07-31T06:29:40.669Z,18.47
2018-07-31T06:35:35.660Z,16.58
2018-07-31T06:41:30.656Z,15.61
2018-07-31T06:47:25.674Z,15.78
2018-07-31T06:53:20.646Z,18.08
2018-07-31T06:59:15.663Z,15.27
2018-07-31T07:05:10.689Z,20.93
2018-07-31T07:11:05.685Z,15.62
2018-07-31T07:17:00.690Z,17.27
2018-07-31T07:22:55.675Z,16.86
2018-07-31T07:28:50.700Z,20
2018-07-31T07:34:45.785Z,18.23
2018-07-31T07:40:40.693Z,17.29
2018-07-31T07:46:35.715Z,11.6
2018-07-31T07:52:30.832Z,15.49
2018-07-31T07:58:25.714Z,11.5
2018-07-31T08:04:20.736Z,11.09
2018-07-31T08:10:15.792Z,13.1
2018-07-31T08:16:10.714Z,15.49
2018-07-31T08:22:05.758Z,15.34
2018-07-31T08:28:00.739Z,10.69
2018-07-31T08:33:55.731Z,12.68
2018-07-31T08:39:50.809Z,12.22
2018-07-31T08:45:45.741Z,10.44
2018-07-31T08:51:40.844Z,10.03
2018-07-31T08:57:35.802Z,8.47
2018-07-31T09:03:30.767Z,7.26
2018-07-31T09:09:25.780Z,8.12
2018-07-31T09:15:20.813Z,7.09
2018-07-31T09:21:15.800Z,7.62
2018-07-31T09:27:10.786Z,7.05
2018-07-31T09:33:05.799Z,5.83
2018-07-31T09:39:00.808Z,5.61
2018-07-31T09:44:55.814Z,6.1
2018-07-31T09:50:50.808Z,5.51
2018-07-31T09:56:45.848Z,5.41
2018-07-31T10:02:40.816Z,5.81
2018-07-31T10:08:35.837Z,6.04
2018-07-31T10:14:30.861Z,5.85
2018-07-31T10:20:25.850Z,5.89
2018-07-31T10:26:20.840Z,5.82
2018-07-31T10:32:15.916Z,5.41
2018-07-31T10:38:10.858Z,5.04
2018-07-31T10:44:06.043Z,5.32
2018-07-31T10:50:00.857Z,4.96
2018-07-31T10:55:55.875Z,4.82
2018-07-31T11:01:50.941Z,4.3
2018-07-31T11:07:45.968Z,4.39
2018-07-31T11:13:40.901Z,4.28
2018-07-31T11:19:35.962Z,6.13
2018-07-31T11:25:30.910Z,4.48
2018-07-31T11:31:25.918Z,4.16
2018-07-31T11:37:20.973Z,3.69
2018-07-31T11:43:15.912Z,3.32
2018-07-31T11:49:10.975Z,3.41
2018-07-31T11:55:06.063Z,3.21
2018-07-31T12:01:00.935Z,2.86
2018-07-31T12:06:55.977Z,3.48
2018-07-31T12:12:50.988Z,3.56
2018-07-31T12:18:46.043Z,2.88
2018-07-31T12:24:41.021Z,3.28
2018-07-31T12:30:36.077Z,2.78
2018-07-31T12:36:30.996Z,3.03
2018-07-31T12:42:25.973Z,2.89
2018-07-31T12:48:21.041Z,2.63
2018-07-31T12:54:16.056Z,2.89
2018-07-31T13:00:11.018Z,2.78
2018-07-31T13:06:06.012Z,2.78
2018-07-31T13:12:00.977Z,2.89
2018-07-31T13:17:56.082Z,2.65
2018-07-31T13:23:51.117Z,2.87
2018-07-31T13:29:46.095Z,3.15
2018-07-31T13:35:41.008Z,2.7
2018-07-31T13:41:36.062Z,2.66
2018-07-31T13:47:31.047Z,3.19
2018-07-31T13:53:26.091Z,3.08
2018-07-31T13:59:21.051Z,3.06
2018-07-31T14:05:16.053Z,3.35
2018-07-31T14:11:11.075Z,2.82
2018-07-31T14:17:06.118Z,3.01
2018-07-31T14:23:01.075Z,2.97
2018-07-31T14:28:58.280Z,3.81
2018-07-31T14:34:51.125Z,3.1
2018-07-31T14:40:46.080Z,3.57
2018-07-31T14:46:41.103Z,3.59
2018-07-31T14:52:36.117Z,3.73
2018-07-31T14:58:33.469Z,4.87
2018-07-31T15:04:26.128Z,5.13
2018-07-31T15:10:21.082Z,6.74
2018-07-31T15:16:16.168Z,3.3
2018-07-31T15:22:11.151Z,4.14
2018-07-31T15:28:06.169Z,4.04
2018-07-31T15:34:08.892Z,4.18
2018-07-31T15:40:00.264Z,3.87
2018-07-31T15:46:11.357Z,3.72
2018-07-31T15:51:50.843Z,3.68
2018-07-31T15:57:50.959Z,4.43
2018-07-31T16:03:46.054Z,3.73
2018-07-31T16:09:39.304Z,3.99
2018-07-31T16:15:34.313Z,4.03
2018-07-31T16:21:29.365Z,4.51
2018-07-31T16:27:16.282Z,4.22
2018-07-31T16:33:19.371Z,4.67
2018-07-31T16:39:15.950Z,4.54
2018-07-31T16:45:11.096Z,5.85
2018-07-31T16:51:04.358Z,4.87
2018-07-31T16:56:59.438Z,5.07
2018-07-31T17:02:54.342Z,9.15
2018-07-31T17:08:49.333Z,4.98
2018-07-31T17:14:44.435Z,5.3
2018-07-31T17:20:39.465Z,5.73
2018-07-31T17:26:34.398Z,5.27
2018-07-31T17:32:29.491Z,7.88
2018-07-31T17:38:24.372Z,5.71
2018-07-31T17:44:19.609Z,5.19
2018-07-31T17:50:16.060Z,4.91
2018-07-31T17:56:11.224Z,5.46
2018-07-31T18:02:06.388Z,4.97
2018-07-31T18:08:01.112Z,5.05
2018-07-31T18:13:54.496Z,6.31
2018-07-31T18:19:49.531Z,6.4
2018-07-31T18:25:36.295Z,6.53
2018-07-31T18:31:31.285Z,6.48
2018-07-31T18:37:26.320Z,6.52
2018-07-31T18:43:21.297Z,6.06
2018-07-31T18:49:16.375Z,6.17
2018-07-31T18:55:11.481Z,6.64
2018-07-31T19:01:06.424Z,6.37
2018-07-31T19:07:01.373Z,6.32
2018-07-31T19:12:56.325Z,7.51
2018-07-31T19:18:51.376Z,6.54
2018-07-31T19:24:46.351Z,6.06
2018-07-31T19:30:41.347Z,7.63
2018-07-31T19:36:36.350Z,8.78
2018-07-31T19:42:31.395Z,7.04
2018-07-31T19:48:26.410Z,6.69
2018-07-31T19:54:21.402Z,6.88
2018-07-31T20:00:16.425Z,5.9
2018-07-31T20:06:11.392Z,7.25
2018-07-31T20:12:06.472Z,6.54
2018-07-31T20:18:01.478Z,7.43
2018-07-31T20:23:56.465Z,7.21
2018-07-31T20:29:51.488Z,17.78
2018-07-31T20:35:46.406Z,6.95
2018-07-31T20:41:41.438Z,20.35
2018-07-31T20:47:36.424Z,7.3
2018-07-31T20:53:31.451Z,7.1
2018-07-31T20:59:26.519Z,7.25
2018-07-31T21:05:21.486Z,7.16
2018-07-31T21:11:16.454Z,8.16
2018-07-31T21:17:11.447Z,11.58
2018-07-31T21:23:06.495Z,7.45
2018-07-31T21:29:01.452Z,8.21
2018-07-31T21:34:56.471Z,7.57
2018-07-31T21:40:51.484Z,8.19
2018-07-31T21:46:46.531Z,8.08
2018-07-31T21:52:41.553Z,9.56
2018-07-31T21:58:36.520Z,7.83
2018-07-31T22:04:31.497Z,9.23
2018-07-31T22:10:26.568Z,11.69
2018-07-31T22:16:21.519Z,8.61
2018-07-31T22:22:16.492Z,9.34
2018-07-31T22:28:11.525Z,7.65
2018-07-31T22:34:06.493Z,8.63
2018-07-31T22:40:01.572Z,8.81
2018-07-31T22:45:56.519Z,8.62
2018-07-31T22:51:51.562Z,9.07
2018-07-31T22:57:46.575Z,8.78
2018-07-31T23:03:41.551Z,10.76
2018-07-31T23:09:36.562Z,9.45
2018-07-31T23:15:31.566Z,9.68
2018-07-31T23:21:26.560Z,10.24
2018-07-31T23:27:21.596Z,9.62
2018-07-31T23:33:16.591Z,8.83
2018-07-31T23:39:11.607Z,8.96
2018-07-31T23:45:06.567Z,9.17
2018-07-31T23:51:01.599Z,9.02
2018-07-31T23:56:56.587Z,10.61
